createdAt,value
2017-05-11T04:40:18.547Z,21.05
2017-05-11T04:41:14.829Z,21.04
2017-05-11T04:42:15.198Z,21.04
2017-05-11T04:43:15.530Z,21.24
2017-05-11T04:44:20.099Z,21.09
2017-05-11T04:45:16.087Z,21.06
2017-05-11T04:46:15.739Z,21.05
2017-05-11T04:47:16.896Z,21.05
2017-05-11T04:48:15.292Z,21.05
2017-05-11T04:49:14.231Z,21.06
2017-05-11T04:50:16.016Z,21.06
2017-05-11T04:51:14.799Z,21.05
2017-05-11T04:52:16.338Z,21.05
2017-05-11T04:53:16.243Z,21.05
2017-05-11T04:54:14.498Z,21.05
2017-05-11T04:55:15.212Z,21.59
2017-05-11T04:56:17.070Z,21.64
2017-05-11T04:57:17.821Z,21.30
2017-05-11T04:58:15.537Z,21.14
2017-05-11T04:59:14.627Z,21.12
2017-05-11T05:00:16.359Z,21.61
2017-05-11T05:01:14.682Z,21.64
2017-05-11T05:02:18.066Z,21.29
2017-05-11T05:03:15.121Z,21.14
2017-05-11T05:04:15.266Z,21.12
2017-05-11T05:05:15.766Z,21.09
2017-05-11T05:06:14.922Z,21.07
2017-05-11T05:07:15.310Z,21.07
2017-05-11T05:08:15.120Z,21.06
2017-05-11T05:09:14.546Z,21.05
2017-05-11T05:10:14.631Z,21.05
2017-05-11T05:11:15.660Z,21.05
2017-05-11T05:12:14.986Z,21.05
2017-05-11T05:13:15.118Z,21.04
2017-05-11T05:14:15.180Z,21.05
2017-05-11T05:15:13.843Z,21.04
2017-05-11T05:16:14.784Z,21.04
2017-05-11T05:17:16.627Z,21.04
2017-05-11T05:18:14.454Z,21.05
2017-05-11T05:19:14.429Z,21.04
2017-05-11T05:20:13.770Z,21.57
2017-05-11T05:21:14.336Z,21.63
2017-05-11T05:22:14.718Z,21.30
2017-05-11T05:23:16.129Z,21.13
2017-05-11T05:24:16.663Z,21.09
2017-05-11T05:25:16.197Z,21.07
2017-05-11T05:26:17.620Z,21.06
2017-05-11T05:27:14.631Z,21.07
2017-05-11T05:28:18.192Z,21.07
2017-05-11T05:29:16.467Z,21.05
2017-05-11T05:30:15.414Z,21.04
2017-05-11T05:31:14.313Z,21.05
2017-05-11T05:32:15.266Z,21.05
2017-05-11T05:33:14.843Z,21.03
2017-05-11T05:34:17.130Z,21.58
2017-05-11T05:35:15.520Z,21.62
2017-05-11T05:36:15.519Z,21.64
2017-05-11T05:37:16.399Z,21.66
2017-05-11T05:38:16.114Z,21.66
2017-05-11T05:39:16.695Z,21.67
2017-05-11T05:40:14.755Z,21.68
2017-05-11T05:41:14.625Z,21.66
2017-05-11T05:42:14.270Z,21.67
2017-05-11T05:43:17.015Z,21.31
2017-05-11T05:44:18.123Z,21.13
2017-05-11T05:45:15.648Z,21.08
2017-05-11T05:46:14.334Z,21.07
2017-05-11T05:47:16.624Z,21.05
2017-05-11T05:48:14.687Z,21.05
2017-05-11T05:49:15.156Z,21.04
2017-05-11T05:50:16.339Z,21.05
2017-05-11T05:51:15.753Z,21.04
2017-05-11T05:52:15.490Z,21.04
2017-05-11T05:53:15.138Z,21.03
2017-05-11T05:54:13.607Z,21.03
2017-05-11T05:55:15.869Z,21.03
2017-05-11T05:56:14.702Z,21.03
2017-05-11T05:57:16.292Z,21.03
2017-05-11T05:58:14.626Z,21.03
2017-05-11T05:59:15.640Z,21.04
2017-05-11T06:00:15.032Z,21.04
2017-05-11T06:01:15.297Z,21.03
2017-05-11T06:02:14.679Z,21.03
2017-05-11T06:03:14.906Z,21.03
2017-05-11T06:04:16.001Z,21.01
2017-05-11T06:05:15.861Z,21.02
2017-05-11T06:06:16.794Z,21.02
2017-05-11T06:07:15.122Z,21.02
2017-05-11T06:08:17.544Z,21.02
2017-05-11T06:09:14.566Z,21.02
2017-05-11T06:10:16.744Z,21.56
2017-05-11T06:11:14.552Z,21.08
2017-05-11T06:12:14.483Z,21.05
2017-05-11T06:13:15.103Z,21.02
2017-05-11T06:14:15.893Z,21.01
2017-05-11T06:15:21.277Z,21.01
2017-05-11T06:16:17.019Z,21.01
2017-05-11T06:17:15.038Z,21.01
2017-05-11T06:18:15.926Z,21.00
2017-05-11T06:19:15.584Z,21.01
2017-05-11T06:20:15.100Z,21.01
2017-05-11T06:21:15.171Z,21.03
2017-05-11T06:22:14.241Z,21.02
2017-05-11T06:23:16.947Z,21.03
2017-05-11T06:24:15.674Z,21.03
2017-05-11T06:25:17.255Z,21.04
2017-05-11T06:26:15.193Z,21.03
2017-05-11T06:27:15.098Z,21.03
2017-05-11T06:28:15.657Z,21.03
2017-05-11T06:29:15.682Z,21.04
2017-05-11T06:30:14.290Z,21.04
2017-05-11T06:31:17.727Z,21.04
2017-05-11T06:32:16.154Z,21.05
2017-05-11T06:33:14.381Z,21.04
2017-05-11T06:34:15.596Z,21.05
2017-05-11T06:35:15.066Z,21.05
2017-05-11T06:36:14.991Z,21.05
2017-05-11T06:37:14.623Z,21.05
2017-05-11T06:38:14.602Z,21.03
2017-05-11T06:39:14.737Z,21.04
2017-05-11T06:40:16.651Z,21.04
2017-05-11T06:41:15.172Z,21.04
2017-05-11T06:42:16.007Z,21.03
2017-05-11T06:43:15.050Z,21.03
2017-05-11T06:44:14.321Z,21.06
2017-05-11T06:45:14.240Z,21.03
2017-05-11T06:46:19.006Z,21.02
2017-05-11T06:47:15.821Z,21.02
2017-05-11T06:48:14.956Z,21.01
2017-05-11T06:49:14.837Z,21.00
2017-05-11T06:50:15.657Z,21.01
2017-05-11T06:51:18.389Z,21.00
2017-05-11T06:52:14.616Z,21.00
2017-05-11T06:53:15.782Z,21.01
2017-05-11T06:54:14.859Z,21.00
2017-05-11T06:55:14.699Z,21.00
2017-05-11T06:56:14.800Z,21.00
2017-05-11T06:57:16.038Z,21.00
2017-05-11T06:58:14.474Z,21.01
2017-05-11T06:59:16.322Z,21.01
2017-05-11T07:00:15.071Z,21.01
2017-05-11T07:01:14.577Z,21.01
2017-05-11T07:02:15.191Z,21.00
2017-05-11T07:03:16.207Z,21.00
2017-05-11T07:04:13.592Z,21.00
2017-05-11T07:05:15.121Z,21.01
2017-05-11T07:06:14.242Z,21.01
2017-05-11T07:07:15.239Z,21.02
2017-05-11T07:08:14.560Z,21.01
2017-05-11T07:09:17.522Z,21.00
2017-05-11T07:10:16.056Z,21.00
2017-05-11T07:11:15.708Z,20.99
2017-05-11T07:12:16.958Z,21.00
2017-05-11T07:13:15.859Z,21.00
2017-05-11T07:14:14.593Z,21.00
2017-05-11T07:15:16.292Z,21.00
2017-05-11T07:16:14.751Z,21.01
2017-05-11T07:17:13.862Z,21.00
2017-05-11T07:18:13.155Z,21.02
2017-05-11T07:19:14.954Z,21.02
2017-05-11T07:20:15.499Z,21.04
2017-05-11T07:21:15.168Z,21.02
2017-05-11T07:22:15.683Z,21.02
2017-05-11T07:23:15.079Z,21.01
2017-05-11T07:24:17.655Z,21.00
2017-05-11T07:25:14.725Z,21.02
2017-05-11T07:26:15.863Z,21.01
2017-05-11T07:27:17.659Z,21.01
2017-05-11T07:28:15.387Z,21.02
2017-05-11T07:29:14.893Z,21.01
2017-05-11T07:30:15.161Z,21.02
2017-05-11T07:31:15.859Z,21.02
2017-05-11T07:32:14.945Z,21.02
2017-05-11T07:33:14.763Z,21.03
2017-05-11T07:34:16.860Z,21.02
2017-05-11T07:35:16.659Z,21.02
2017-05-11T07:36:14.707Z,21.03
2017-05-11T07:37:18.184Z,21.04
2017-05-11T07:38:14.723Z,21.03
2017-05-11T07:39:13.680Z,21.07
2017-05-11T07:40:15.159Z,21.03
2017-05-11T07:41:15.355Z,21.04
2017-05-11T07:42:16.800Z,21.04
2017-05-11T07:43:17.538Z,21.04
2017-05-11T07:44:15.090Z,21.04
2017-05-11T07:45:13.868Z,21.05
2017-05-11T07:46:17.296Z,21.05
2017-05-11T07:47:15.561Z,21.05
2017-05-11T07:48:14.439Z,21.05
2017-05-11T07:49:15.118Z,21.05
2017-05-11T07:50:14.975Z,21.05
2017-05-11T07:51:15.471Z,21.05
2017-05-11T07:52:14.604Z,21.05
2017-05-11T07:53:15.984Z,21.06
2017-05-11T07:54:15.094Z,21.05
2017-05-11T07:55:16.706Z,21.07
2017-05-11T07:56:15.338Z,21.07
2017-05-11T07:57:16.048Z,21.06
2017-05-11T07:58:17.493Z,21.06
2017-05-11T07:59:17.305Z,21.07
2017-05-11T08:00:18.260Z,21.06
2017-05-11T08:01:15.876Z,21.07
2017-05-11T08:02:15.007Z,21.07
2017-05-11T08:03:15.805Z,21.06
2017-05-11T08:04:20.564Z,21.07
2017-05-11T08:05:15.723Z,21.09
2017-05-11T08:06:15.885Z,21.08
2017-05-11T08:07:15.559Z,21.08
2017-05-11T08:08:14.536Z,21.11
2017-05-11T08:09:16.399Z,21.62
2017-05-11T08:10:15.726Z,21.66
2017-05-11T08:11:14.927Z,21.41
2017-05-11T08:12:17.290Z,21.19
2017-05-11T08:13:15.129Z,21.14
2017-05-11T08:14:14.916Z,21.12
2017-05-11T08:15:16.493Z,21.11
2017-05-11T08:16:14.991Z,21.12
2017-05-11T08:17:15.658Z,21.13
2017-05-11T08:18:15.417Z,21.12
2017-05-11T08:19:15.912Z,21.15
2017-05-11T08:20:17.018Z,21.08
2017-05-11T08:21:17.168Z,21.08
2017-05-11T08:22:16.347Z,21.08
2017-05-11T08:23:15.347Z,21.09
2017-05-11T08:24:15.738Z,21.09
2017-05-11T08:25:15.346Z,21.11
2017-05-11T08:26:13.431Z,21.15
2017-05-11T08:27:17.075Z,21.10
2017-05-11T08:28:15.112Z,21.11
2017-05-11T08:29:17.365Z,21.12
2017-05-11T08:30:15.408Z,21.13
2017-05-11T08:31:15.283Z,21.13
2017-05-11T08:32:16.093Z,21.12
2017-05-11T08:33:14.800Z,21.13
2017-05-11T08:34:13.626Z,21.12
2017-05-11T08:35:14.465Z,21.64
2017-05-11T08:36:15.171Z,21.71
2017-05-11T08:37:15.212Z,21.73
2017-05-11T08:38:19.066Z,21.77
2017-05-11T08:39:16.156Z,21.76
2017-05-11T08:40:18.028Z,21.76
2017-05-11T08:41:15.648Z,21.24
2017-05-11T08:42:16.469Z,21.19
2017-05-11T08:43:15.988Z,21.17
2017-05-11T08:44:14.935Z,21.16
2017-05-11T08:45:19.550Z,21.17
2017-05-11T08:46:14.584Z,21.19
2017-05-11T08:47:15.025Z,21.19
2017-05-11T08:48:14.753Z,21.19
2017-05-11T08:49:17.076Z,21.20
2017-05-11T08:50:16.416Z,21.21
2017-05-11T08:51:15.916Z,21.22
2017-05-11T08:52:15.016Z,21.22
2017-05-11T08:53:15.327Z,21.25
2017-05-11T08:54:13.735Z,21.25
2017-05-11T08:55:17.091Z,21.25
2017-05-11T08:56:14.585Z,21.26
2017-05-11T08:57:16.426Z,21.26
2017-05-11T08:58:15.953Z,21.28
2017-05-11T08:59:15.284Z,21.28
2017-05-11T09:00:15.266Z,21.28
2017-05-11T09:01:15.338Z,21.30
2017-05-11T09:02:14.800Z,21.31
2017-05-11T09:03:15.795Z,21.30
2017-05-11T09:04:14.802Z,21.30
2017-05-11T09:05:14.938Z,21.31
2017-05-11T09:06:14.599Z,21.31
2017-05-11T09:07:14.932Z,21.32
2017-05-11T09:08:15.861Z,21.32
2017-05-11T09:09:14.215Z,21.32
2017-05-11T09:10:14.614Z,21.32
2017-05-11T09:11:17.901Z,21.87
2017-05-11T09:12:16.575Z,21.92
2017-05-11T09:13:16.368Z,21.58
2017-05-11T09:14:14.983Z,21.44
2017-05-11T09:15:15.838Z,21.40
2017-05-11T09:16:15.783Z,21.41
2017-05-11T09:17:17.713Z,21.37
2017-05-11T09:18:16.159Z,21.37
2017-05-11T09:19:16.369Z,21.37
2017-05-11T09:20:15.653Z,21.37
2017-05-11T09:21:15.477Z,21.38
2017-05-11T09:22:16.969Z,21.38
2017-05-11T09:23:14.968Z,21.38
2017-05-11T09:24:15.844Z,21.38
2017-05-11T09:25:14.632Z,21.39
2017-05-11T09:26:15.036Z,21.39
2017-05-11T09:27:15.884Z,21.39
2017-05-11T09:28:15.412Z,21.39
2017-05-11T09:29:15.681Z,21.91
2017-05-11T09:30:22.195Z,21.98
2017-05-11T09:31:15.478Z,22.01
2017-05-11T09:32:13.808Z,22.03
2017-05-11T09:33:14.682Z,21.51
2017-05-11T09:34:15.297Z,21.46
2017-05-11T09:35:14.904Z,21.45
2017-05-11T09:36:15.437Z,21.44
2017-05-11T09:37:14.364Z,21.39
2017-05-11T09:38:16.173Z,21.88
2017-05-11T09:39:14.821Z,21.93
2017-05-11T09:40:17.758Z,21.43
2017-05-11T09:41:17.023Z,21.39
2017-05-11T09:42:15.096Z,21.36
2017-05-11T09:43:13.312Z,21.35
2017-05-11T09:44:15.739Z,21.34
2017-05-11T09:45:15.896Z,21.34
2017-05-11T09:46:15.264Z,21.34
2017-05-11T09:47:16.428Z,21.34
2017-05-11T09:48:16.756Z,21.34
2017-05-11T09:49:16.477Z,21.34
2017-05-11T09:50:14.844Z,21.34
2017-05-11T09:51:15.797Z,21.35
2017-05-11T09:52:16.031Z,21.36
2017-05-11T09:53:17.276Z,21.36
2017-05-11T09:54:13.886Z,21.36
2017-05-11T09:55:16.444Z,21.36
2017-05-11T09:56:15.909Z,21.38
2017-05-11T09:57:15.875Z,21.37
2017-05-11T09:58:14.990Z,21.37
2017-05-11T09:59:15.293Z,21.38
2017-05-11T10:00:14.613Z,21.37
2017-05-11T10:01:14.625Z,21.90
2017-05-11T10:02:15.967Z,21.97
2017-05-11T10:03:15.532Z,21.63
2017-05-11T10:04:14.798Z,21.46
2017-05-11T10:05:14.729Z,21.42
2017-05-11T10:06:17.008Z,21.40
2017-05-11T10:07:15.558Z,21.40
2017-05-11T10:08:15.113Z,21.39
2017-05-11T10:09:15.642Z,21.39
2017-05-11T10:10:16.554Z,21.39
2017-05-11T10:11:14.763Z,21.39
2017-05-11T10:12:14.175Z,21.39
2017-05-11T10:13:15.133Z,21.39
2017-05-11T10:14:15.049Z,21.39
2017-05-11T10:15:16.897Z,21.91
2017-05-11T10:16:15.219Z,21.44
2017-05-11T10:17:16.833Z,21.40
2017-05-11T10:18:14.271Z,21.41
2017-05-11T10:19:16.557Z,21.39
2017-05-11T10:20:15.676Z,21.46
2017-05-11T10:21:15.048Z,21.43
2017-05-11T10:22:17.033Z,21.39
2017-05-11T10:23:15.905Z,21.44
2017-05-11T10:24:15.105Z,21.43
2017-05-11T10:25:14.840Z,21.42
2017-05-11T10:26:15.174Z,21.41
2017-05-11T10:27:15.360Z,21.42
2017-05-11T10:28:14.518Z,21.42
2017-05-11T10:29:14.887Z,21.40
2017-05-11T10:30:15.367Z,21.41
2017-05-11T10:31:16.467Z,21.44
2017-05-11T10:32:14.465Z,21.44
2017-05-11T10:33:14.775Z,21.50
2017-05-11T10:34:15.456Z,21.58
2017-05-11T10:35:16.116Z,21.54
2017-05-11T10:36:15.526Z,21.50
2017-05-11T10:37:14.675Z,21.51
2017-05-11T10:38:15.958Z,21.73
2017-05-11T10:39:17.173Z,21.63
2017-05-11T10:40:15.837Z,21.60
2017-05-11T10:41:20.832Z,21.58
2017-05-11T10:42:15.415Z,21.61
2017-05-11T10:43:16.926Z,21.62
2017-05-11T10:44:16.574Z,21.58
2017-05-11T10:45:15.211Z,21.57
2017-05-11T10:46:14.812Z,21.59
2017-05-11T10:47:17.565Z,21.62
2017-05-11T10:48:14.620Z,21.61
2017-05-11T10:49:19.156Z,21.61
2017-05-11T10:50:16.982Z,21.59
2017-05-11T10:51:15.267Z,21.55
2017-05-11T10:52:14.987Z,21.63
2017-05-11T10:53:18.046Z,21.58
2017-05-11T10:54:15.734Z,21.61
2017-05-11T10:55:14.986Z,21.63
2017-05-11T10:56:15.034Z,21.59
2017-05-11T10:57:14.755Z,21.59
2017-05-11T10:58:14.800Z,21.58
2017-05-11T10:59:16.764Z,21.58
2017-05-11T11:00:16.073Z,21.58
2017-05-11T11:01:15.172Z,21.66
2017-05-11T11:02:16.479Z,21.66
2017-05-11T11:03:14.852Z,21.63
2017-05-11T11:04:15.079Z,21.61
2017-05-11T11:05:15.204Z,21.62
2017-05-11T11:06:15.124Z,22.18
2017-05-11T11:07:14.885Z,22.24
2017-05-11T11:08:15.808Z,22.26
2017-05-11T11:09:14.693Z,21.85
2017-05-11T11:10:16.704Z,21.75
2017-05-11T11:11:16.381Z,21.74
2017-05-11T11:12:15.565Z,21.71
2017-05-11T11:13:17.055Z,21.67
2017-05-11T11:14:18.641Z,21.65
2017-05-11T11:15:15.179Z,21.65
2017-05-11T11:16:15.217Z,21.66
2017-05-11T11:17:14.750Z,21.73
2017-05-11T11:18:14.871Z,21.71
2017-05-11T11:19:14.174Z,21.68
2017-05-11T11:20:14.465Z,21.70
2017-05-11T11:21:13.650Z,21.74
2017-05-11T11:22:14.970Z,21.72
2017-05-11T11:23:14.085Z,21.67
2017-05-11T11:24:14.505Z,21.67
2017-05-11T11:25:14.992Z,21.74
2017-05-11T11:26:14.462Z,21.79
2017-05-11T11:27:14.278Z,21.75
2017-05-11T11:28:15.356Z,21.73
2017-05-11T11:29:13.972Z,21.70
2017-05-11T11:30:23.144Z,21.69
2017-05-11T11:31:14.253Z,21.76
2017-05-11T11:32:15.965Z,21.74
2017-05-11T11:33:14.611Z,21.77
2017-05-11T11:34:14.082Z,21.75
2017-05-11T11:35:15.100Z,21.74
2017-05-11T11:36:14.729Z,21.74
2017-05-11T11:37:14.093Z,21.75
2017-05-11T11:38:14.464Z,21.75
2017-05-11T11:39:13.732Z,21.77
2017-05-11T11:40:13.905Z,21.74
2017-05-11T11:41:16.770Z,21.74
2017-05-11T11:42:13.943Z,21.76
2017-05-11T11:43:13.795Z,21.76
2017-05-11T11:44:14.239Z,21.76
2017-05-11T11:45:15.509Z,21.75
2017-05-11T11:46:14.254Z,21.77
2017-05-11T11:47:14.391Z,21.78
2017-05-11T11:48:15.329Z,21.77
2017-05-11T11:49:14.965Z,21.77
2017-05-11T11:50:14.982Z,21.79
2017-05-11T11:51:13.932Z,21.79
2017-05-11T11:52:14.268Z,21.78
2017-05-11T11:53:14.506Z,21.77
2017-05-11T11:54:13.736Z,21.78
2017-05-11T11:55:10.756Z,21.76
2017-05-11T11:56:15.361Z,21.78
2017-05-11T11:57:11.874Z,21.76
2017-05-11T11:58:14.646Z,21.76
2017-05-11T11:59:15.094Z,21.75
2017-05-11T12:00:11.530Z,21.73
2017-05-11T12:01:15.014Z,21.72
2017-05-11T12:02:15.044Z,21.72
2017-05-11T12:03:12.383Z,21.71
2017-05-11T12:04:15.522Z,22.24
2017-05-11T12:05:14.675Z,22.30
2017-05-11T12:06:15.090Z,21.95
2017-05-11T12:07:15.479Z,21.79
2017-05-11T12:08:15.596Z,21.75
2017-05-11T12:09:16.506Z,21.73
2017-05-11T12:10:15.292Z,21.72
2017-05-11T12:11:15.676Z,21.72
2017-05-11T12:12:15.244Z,21.72
2017-05-11T12:13:15.509Z,21.72
2017-05-11T12:14:14.736Z,21.72
2017-05-11T12:15:20.554Z,21.72
2017-05-11T12:16:15.103Z,21.72
2017-05-11T12:17:15.262Z,21.73
2017-05-11T12:18:15.350Z,21.74
2017-05-11T12:19:15.348Z,21.73
2017-05-11T12:20:15.386Z,21.73
2017-05-11T12:21:15.609Z,21.74
2017-05-11T12:22:14.485Z,21.74
2017-05-11T12:23:14.634Z,21.78
2017-05-11T12:24:14.701Z,21.79
2017-05-11T12:25:15.584Z,21.81
2017-05-11T12:26:14.479Z,21.81
2017-05-11T12:27:15.532Z,21.86
2017-05-11T12:28:14.548Z,21.86
2017-05-11T12:29:14.617Z,21.87
2017-05-11T12:30:14.790Z,21.89
2017-05-11T12:31:15.631Z,21.91
2017-05-11T12:32:15.770Z,21.96
2017-05-11T12:33:16.291Z,21.97
2017-05-11T12:34:15.347Z,22.00
2017-05-11T12:35:15.587Z,22.05
2017-05-11T12:36:15.154Z,22.14
2017-05-11T12:37:15.547Z,22.08
2017-05-11T12:38:14.719Z,22.11
2017-05-11T12:39:14.808Z,22.10
2017-05-11T12:40:14.774Z,22.11
2017-05-11T12:41:15.021Z,22.15
2017-05-11T12:42:14.875Z,22.14
2017-05-11T12:43:12.754Z,22.14
2017-05-11T12:44:15.164Z,22.72
2017-05-11T12:45:16.040Z,22.77
2017-05-11T12:46:15.032Z,22.80
2017-05-11T12:47:15.312Z,22.84
2017-05-11T12:48:14.749Z,22.86
2017-05-11T12:49:14.779Z,22.88
2017-05-11T12:50:15.732Z,22.92
2017-05-11T12:51:15.905Z,22.93
2017-05-11T12:52:14.375Z,22.94
2017-05-11T12:53:14.720Z,22.96
2017-05-11T12:54:14.846Z,22.47
2017-05-11T12:55:11.513Z,22.44
2017-05-11T12:56:15.565Z,22.43
2017-05-11T12:57:15.174Z,22.43
2017-05-11T12:58:15.335Z,22.43
2017-05-11T12:59:15.847Z,22.98
2017-05-11T13:00:14.918Z,23.05
2017-05-11T13:01:15.332Z,22.75
2017-05-11T13:02:15.191Z,22.57
2017-05-11T13:03:15.098Z,22.53
2017-05-11T13:04:15.002Z,22.52
2017-05-11T13:05:15.536Z,22.51
2017-05-11T13:06:14.894Z,22.52
2017-05-11T13:07:15.065Z,22.53
2017-05-11T13:08:16.751Z,22.55
2017-05-11T13:09:14.709Z,22.60
2017-05-11T13:10:15.506Z,22.59
2017-05-11T13:11:14.933Z,22.62
2017-05-11T13:12:15.328Z,22.61
2017-05-11T13:13:14.215Z,22.62
2017-05-11T13:14:15.892Z,22.63
2017-05-11T13:15:15.169Z,22.63
2017-05-11T13:16:16.135Z,22.63
2017-05-11T13:17:15.043Z,22.70
2017-05-11T13:18:15.850Z,22.73
2017-05-11T13:19:14.876Z,22.75
2017-05-11T13:20:15.908Z,22.78
2017-05-11T13:21:15.161Z,22.80
2017-05-11T13:22:15.079Z,22.81
2017-05-11T13:23:15.038Z,22.82
2017-05-11T13:24:15.795Z,22.82
2017-05-11T13:25:15.842Z,22.83
2017-05-11T13:26:14.778Z,22.83
2017-05-11T13:27:14.696Z,22.89
2017-05-11T13:28:15.121Z,22.88
2017-05-11T13:29:12.589Z,22.90
2017-05-11T13:30:15.172Z,23.46
2017-05-11T13:31:14.816Z,23.49
2017-05-11T13:32:12.540Z,23.50
2017-05-11T13:33:14.586Z,23.57
2017-05-11T13:34:14.632Z,23.59
2017-05-11T13:35:14.636Z,23.56
2017-05-11T13:36:14.746Z,23.23
2017-05-11T13:37:14.712Z,23.08
2017-05-11T13:38:15.256Z,23.05
2017-05-11T13:39:15.154Z,23.04
2017-05-11T13:40:15.124Z,23.03
2017-05-11T13:41:15.221Z,23.02
2017-05-11T13:42:15.956Z,23.02
2017-05-11T13:43:14.877Z,23.05
2017-05-11T13:44:14.936Z,23.07
2017-05-11T13:45:14.833Z,23.08
2017-05-11T13:46:15.244Z,23.08
2017-05-11T13:47:15.117Z,23.08
2017-05-11T13:48:15.236Z,23.10
2017-05-11T13:49:15.625Z,23.14
2017-05-11T13:50:14.926Z,23.16
2017-05-11T13:51:14.897Z,23.18
2017-05-11T13:52:15.482Z,23.18
2017-05-11T13:53:14.428Z,23.20
2017-05-11T13:54:14.737Z,23.25
2017-05-11T13:55:15.012Z,23.31
2017-05-11T13:56:15.124Z,23.32
2017-05-11T13:57:15.102Z,23.32
2017-05-11T13:58:15.410Z,23.42
2017-05-11T13:59:14.432Z,23.39
2017-05-11T14:00:14.617Z,23.38
2017-05-11T14:01:14.927Z,23.37
2017-05-11T14:02:16.231Z,23.38
2017-05-11T14:03:15.315Z,23.38
2017-05-11T14:04:15.192Z,23.39
2017-05-11T14:05:16.765Z,23.38
2017-05-11T14:06:14.952Z,23.43
2017-05-11T14:07:15.590Z,23.44
2017-05-11T14:08:14.853Z,23.38
2017-05-11T14:09:17.231Z,23.33
2017-05-11T14:10:16.177Z,23.86
2017-05-11T14:11:11.891Z,23.91
2017-05-11T14:12:15.041Z,23.91
2017-05-11T14:13:11.359Z,23.90
2017-05-11T14:14:15.485Z,23.86
2017-05-11T14:15:15.178Z,23.85
2017-05-11T14:16:15.509Z,23.47
2017-05-11T14:17:15.178Z,23.26
2017-05-11T14:18:15.179Z,23.20
2017-05-11T14:19:16.133Z,23.18
2017-05-11T14:20:15.845Z,23.17
2017-05-11T14:21:15.546Z,23.16
2017-05-11T14:22:14.454Z,23.13
2017-05-11T14:23:17.545Z,23.12
2017-05-11T14:24:14.400Z,23.10
2017-05-11T14:25:14.633Z,23.09
2017-05-11T14:26:14.546Z,23.08
2017-05-11T14:27:14.539Z,23.07
2017-05-11T14:28:13.850Z,23.07
2017-05-11T14:29:12.264Z,23.05
2017-05-11T14:30:10.974Z,23.04
2017-05-11T14:31:15.324Z,23.04
2017-05-11T14:32:15.685Z,23.03
2017-05-11T14:33:15.283Z,23.03
2017-05-11T14:34:15.309Z,23.03
2017-05-11T14:35:21.196Z,23.03
2017-05-11T14:36:15.279Z,23.04
2017-05-11T14:37:15.283Z,23.05
2017-05-11T14:38:15.207Z,23.08
2017-05-11T14:39:15.374Z,23.13
2017-05-11T14:40:15.543Z,23.13
2017-05-11T14:41:15.174Z,23.14
2017-05-11T14:42:15.897Z,23.15
2017-05-11T14:43:15.116Z,23.16
2017-05-11T14:44:17.055Z,23.16
2017-05-11T14:45:15.320Z,23.16
2017-05-11T14:46:15.524Z,23.16
2017-05-11T14:47:15.127Z,23.15
2017-05-11T14:48:15.258Z,23.14
2017-05-11T14:49:15.217Z,23.14
2017-05-11T14:50:17.101Z,23.15
2017-05-11T14:51:15.718Z,23.15
2017-05-11T14:52:14.508Z,23.15
2017-05-11T14:53:14.619Z,23.16
2017-05-11T14:54:15.366Z,23.18
2017-05-11T14:55:10.872Z,23.19
2017-05-11T14:56:15.591Z,23.20
2017-05-11T14:57:15.592Z,23.20
2017-05-11T14:58:15.117Z,23.21
2017-05-11T14:59:16.117Z,23.21
2017-05-11T15:00:14.963Z,23.21
2017-05-11T15:01:14.978Z,23.21
2017-05-11T15:02:15.822Z,23.22
2017-05-11T15:03:14.934Z,23.21
2017-05-11T15:04:15.137Z,23.20
2017-05-11T15:05:16.039Z,23.22
2017-05-11T15:06:16.048Z,23.20
2017-05-11T15:07:15.898Z,23.20
2017-05-11T15:08:16.543Z,23.20
2017-05-11T15:09:14.611Z,23.21
2017-05-11T15:10:15.479Z,23.20
2017-05-11T15:11:15.464Z,23.20
2017-05-11T15:12:14.774Z,23.20
2017-05-11T15:13:14.942Z,23.21
2017-05-11T15:14:15.506Z,23.24
2017-05-11T15:15:15.043Z,23.24
2017-05-11T15:16:15.268Z,23.78
2017-05-11T15:17:16.622Z,23.31
2017-05-11T15:18:14.930Z,23.27
2017-05-11T15:19:14.842Z,23.27
2017-05-11T15:20:14.948Z,23.28
2017-05-11T15:21:16.920Z,23.24
2017-05-11T15:22:15.478Z,23.25
2017-05-11T15:23:14.748Z,23.24
2017-05-11T15:24:16.111Z,23.25
2017-05-11T15:25:15.068Z,23.24
2017-05-11T15:26:15.250Z,23.25
2017-05-11T15:27:12.775Z,23.24
2017-05-11T15:28:15.155Z,23.26
2017-05-11T15:29:15.339Z,23.27
2017-05-11T15:30:15.462Z,23.27
2017-05-11T15:31:14.476Z,23.28
2017-05-11T15:32:14.639Z,23.28
2017-05-11T15:33:14.497Z,23.24
2017-05-11T15:34:15.311Z,23.23
2017-05-11T15:35:15.414Z,23.19
2017-05-11T15:36:15.483Z,23.17
2017-05-11T15:37:14.710Z,23.16
2017-05-11T15:38:14.866Z,23.14
2017-05-11T15:39:14.863Z,23.10
2017-05-11T15:40:15.656Z,23.09
2017-05-11T15:41:14.774Z,23.07
2017-05-11T15:42:15.002Z,23.05
2017-05-11T15:43:15.510Z,23.03
2017-05-11T15:44:14.675Z,23.01
2017-05-11T15:45:15.059Z,22.98
2017-05-11T15:46:15.214Z,22.98
2017-05-11T15:47:12.977Z,22.95
2017-05-11T15:48:10.128Z,23.44
2017-05-11T15:49:15.574Z,23.14
2017-05-11T15:50:16.014Z,22.95
2017-05-11T15:51:15.199Z,22.90
2017-05-11T15:52:15.499Z,22.87
2017-05-11T15:53:15.163Z,22.83
2017-05-11T15:54:15.776Z,22.82
2017-05-11T15:55:15.157Z,22.80
2017-05-11T15:56:14.997Z,23.32
2017-05-11T15:57:14.877Z,23.35
2017-05-11T15:58:15.922Z,23.02
2017-05-11T15:59:15.058Z,22.84
2017-05-11T16:00:15.270Z,22.77
2017-05-11T16:01:15.854Z,22.75
2017-05-11T16:02:15.055Z,22.73
2017-05-11T16:03:15.217Z,22.71
2017-05-11T16:04:15.262Z,22.69
2017-05-11T16:05:15.066Z,22.68
2017-05-11T16:06:15.391Z,22.67
2017-05-11T16:07:15.614Z,22.65
2017-05-11T16:08:15.337Z,22.64
2017-05-11T16:09:16.893Z,22.62
2017-05-11T16:10:16.114Z,22.61
2017-05-11T16:11:15.698Z,22.60
2017-05-11T16:12:15.161Z,22.59
2017-05-11T16:13:16.514Z,22.58
2017-05-11T16:14:14.700Z,22.56
2017-05-11T16:15:16.296Z,22.56
2017-05-11T16:16:15.984Z,22.55
2017-05-11T16:17:15.412Z,22.54
2017-05-11T16:18:14.647Z,22.52
2017-05-11T16:19:15.121Z,22.51
2017-05-11T16:20:15.725Z,22.51
2017-05-11T16:21:13.376Z,22.49
2017-05-11T16:22:14.874Z,22.49
2017-05-11T16:23:15.260Z,22.47
2017-05-11T16:24:15.364Z,22.47
2017-05-11T16:25:12.357Z,22.46
2017-05-11T16:26:16.158Z,22.45
2017-05-11T16:27:12.839Z,22.44
2017-05-11T16:28:16.216Z,22.43
2017-05-11T16:29:15.377Z,22.42
2017-05-11T16:30:15.592Z,22.42
2017-05-11T16:31:14.585Z,22.41
2017-05-11T16:32:14.811Z,22.40
2017-05-11T16:33:14.971Z,22.40
2017-05-11T16:34:14.987Z,22.39
2017-05-11T16:35:16.628Z,22.38
2017-05-11T16:36:14.722Z,22.37
2017-05-11T16:37:11.235Z,22.35
2017-05-11T16:38:15.541Z,22.36
2017-05-11T16:39:14.693Z,22.35
2017-05-11T16:40:14.789Z,22.34
2017-05-11T16:41:15.435Z,22.34
2017-05-11T16:42:14.364Z,22.34
2017-05-11T16:43:15.763Z,22.32
2017-05-11T16:44:11.037Z,22.31
2017-05-11T16:45:14.644Z,22.30
2017-05-11T16:46:14.768Z,22.31
2017-05-11T16:47:15.437Z,22.29
2017-05-11T16:48:15.049Z,22.29
2017-05-11T16:49:15.689Z,22.28
2017-05-11T16:50:15.515Z,22.27
2017-05-11T16:51:15.491Z,22.27
2017-05-11T16:52:14.720Z,22.29
2017-05-11T16:53:15.316Z,22.25
2017-05-11T16:54:15.280Z,22.25
2017-05-11T16:55:15.440Z,22.24
2017-05-11T16:56:14.787Z,22.24
2017-05-11T16:57:14.985Z,22.23
2017-05-11T16:58:12.379Z,22.23
2017-05-11T16:59:14.853Z,22.22
2017-05-11T17:00:14.986Z,22.22
2017-05-11T17:01:15.132Z,22.22
2017-05-11T17:02:14.982Z,22.21
2017-05-11T17:03:14.972Z,22.21
2017-05-11T17:04:15.028Z,22.21
2017-05-11T17:05:15.629Z,22.21
2017-05-11T17:06:16.417Z,22.23
2017-05-11T17:07:14.561Z,22.20
2017-05-11T17:08:11.866Z,22.19
2017-05-11T17:09:15.463Z,22.18
2017-05-11T17:10:15.793Z,22.17
2017-05-11T17:11:14.928Z,22.16
2017-05-11T17:12:15.035Z,22.15
2017-05-11T17:13:15.076Z,22.12
2017-05-11T17:14:14.390Z,22.12
2017-05-11T17:15:15.259Z,22.10
2017-05-11T17:16:15.534Z,22.09
2017-05-11T17:17:15.413Z,22.06
2017-05-11T17:18:14.894Z,22.05
2017-05-11T17:19:15.922Z,22.06
2017-05-11T17:20:15.596Z,22.04
2017-05-11T17:21:14.830Z,22.03
2017-05-11T17:22:15.234Z,22.02
2017-05-11T17:23:16.093Z,22.01
2017-05-11T17:24:15.725Z,22.00
2017-05-11T17:25:14.745Z,22.53
2017-05-11T17:26:15.076Z,22.56
2017-05-11T17:27:15.125Z,22.58
2017-05-11T17:28:15.307Z,22.59
2017-05-11T17:29:15.211Z,22.22
2017-05-11T17:30:15.582Z,22.04
2017-05-11T17:31:14.681Z,21.98
2017-05-11T17:32:14.742Z,21.95